Time;durP1;ratioP1;P1;durP2;ratioP2;P2;SDS_P1;SDS_P2;PMS_P1;PMS_P2;Temp;Humidity;BMP_temperature;BMP_pressure;BME280_temperature;BME280_humidity;BME280_pressure;Samples;Min_cycle;Max_cycle;Signal;HPM_P1;HPM_P2
2022/05/09 00:03:58;;;;;;;;;;;;;;;21.75;42.79;96300.97;10342253;28;2127;-50
2022/05/09 00:08:58;;;;;;;;;;;;;;;21.73;42.74;96301.25;10332541;28;2420;-54
2022/05/09 00:13:59;;;;;;;;;;;;;;;21.71;42.70;96292.00;10357659;28;1856;-54
2022/05/09 00:19:03;;;;;;;;;;;;;;;21.71;42.85;96292.00;10358677;28;2216;-53
2022/05/09 00:24:03;;;;;;;;;;;;;;;21.69;42.72;96297.56;10336555;28;2245;-56
2022/05/09 00:29:03;;;;;;;;;;;;;;;21.72;42.53;96298.88;10327273;28;2347;-53
2022/05/09 00:34:05;;;;;;;;;;;;;;;21.71;42.72;96294.66;10355046;28;1949;-53
2022/05/09 00:39:05;;;;;;;;;;;;;;;21.72;42.88;96298.88;10339591;28;1876;-55
2022/05/09 00:44:10;;;;;;;;;;;;;;;21.75;42.55;96293.06;10335656;28;4270;-54
2022/05/09 00:49:24;;;;;;;;;;;;;;;21.73;42.82;96303.91;10357495;28;2005;-53
2022/05/09 00:54:25;;;;;;;;;;;;;;;21.76;42.57;96289.38;10318600;28;1994;-53
2022/05/09 00:59:26;;;;;;;;;;;;;;;21.77;42.53;96285.66;10343313;28;1928;-53
2022/05/09 01:04:28;;;;;;;;;;;;;;;21.74;42.82;96291.50;10320861;28;2017;-51
2022/05/09 01:09:29;;;;;;;;;;;;;;;21.75;42.75;96287.78;10354262;28;1948;-50
2022/05/09 01:14:32;;;;;;;;;;;;;;;21.73;42.68;96293.34;10355894;28;1955;-54
2022/05/09 01:19:35;;;;;;;;;;;;;;;21.75;42.53;96293.06;10336760;28;2007;-53
2022/05/09 01:24:44;;;;;;;;;;;;;;;21.73;42.54;96293.34;10344397;28;1984;-53
2022/05/09 01:29:54;;;;;;;;;;;;;;;21.71;42.55;96281.47;10338602;28;2227;-50
2022/05/09 01:34:56;;;;;;;;;;;;;;;21.73;42.68;96289.91;10343821;28;2000;-50
2022/05/09 01:39:56;;;;;;;;;;;;;;;21.71;42.45;96292.81;10337436;28;2100;-50
2022/05/09 01:44:57;;;;;;;;;;;;;;;21.70;42.64;96288.59;10332104;28;4303;-54
2022/05/09 01:49:57;;;;;;;;;;;;;;;21.73;42.23;96285.41;10336430;28;2336;-55
2022/05/09 01:55:03;;;;;;;;;;;;;;;21.72;42.70;96290.97;10352534;28;2108;-54
2022/05/09 02:00:05;;;;;;;;;;;;;;;21.73;42.55;96279.34;10350885;28;2311;-51
2022/05/09 02:05:05;;;;;;;;;;;;;;;21.73;42.28;96297.81;10320606;28;2013;-52
2022/05/09 02:10:09;;;;;;;;;;;;;;;21.75;42.26;96288.59;10354539;28;1973;-53
2022/05/09 02:15:10;;;;;;;;;;;;;;;21.73;42.59;96292.53;10350746;28;2175;-56
2022/05/09 02:20:10;;;;;;;;;;;;;;;21.73;42.44;96300.47;10354860;28;1967;-53
2022/05/09 02:25:26;;;;;;;;;;;;;;;21.74;42.30;96307.31;10332241;28;2328;-51
2022/05/09 02:30:27;;;;;;;;;;;;;;;21.69;42.23;96296.78;10339399;28;1979;-54
2022/05/09 02:35:28;;;;;;;;;;;;;;;21.69;42.40;96299.41;10345837;28;1925;-55
2022/05/09 02:40:29;;;;;;;;;;;;;;;21.70;42.38;96296.50;10352094;28;1995;-52
2022/05/09 02:45:29;;;;;;;;;;;;;;;21.71;42.54;96292.00;10328772;28;4166;-52
2022/05/09 02:50:30;;;;;;;;;;;;;;;21.71;42.25;96292.00;10351124;28;1969;-55
2022/05/09 02:55:33;;;;;;;;;;;;;;;21.73;42.37;96285.41;10357859;28;1912;-53
2022/05/09 03:00:33;;;;;;;;;;;;;;;21.74;42.37;96281.72;10362160;28;1951;-51
2022/05/09 03:05:34;;;;;;;;;;;;;;;21.76;42.24;96294.66;10344929;28;1826;-51
2022/05/09 03:10:35;;;;;;;;;;;;;;;21.75;42.23;96293.06;10338337;28;1973;-56
2022/05/09 03:15:36;;;;;;;;;;;;;;;21.74;42.26;96284.34;10343238;28;1951;-52
2022/05/09 03:20:36;;;;;;;;;;;;;;;21.73;42.21;96289.91;10344701;28;1911;-57
2022/05/09 03:25:37;;;;;;;;;;;;;;;21.73;42.08;96295.97;10351537;28;1923;-52
2022/05/09 03:30:38;;;;;;;;;;;;;;;21.75;41.88;96288.59;10344551;28;1927;-53
2022/05/09 03:35:38;;;;;;;;;;;;;;;21.74;41.89;96292.25;10353711;28;1931;-57
2022/05/09 03:40:39;;;;;;;;;;;;;;;21.70;42.05;96290.44;10346531;28;1933;-55
2022/05/09 03:45:40;;;;;;;;;;;;;;;21.70;42.13;96293.84;10335655;28;4100;-55
2022/05/09 03:50:40;;;;;;;;;;;;;;;21.70;42.28;96298.38;10339685;28;2026;-52
2022/05/09 03:55:44;;;;;;;;;;;;;;;21.69;42.21;96309.97;10338274;28;1912;-54
2022/05/09 04:00:44;;;;;;;;;;;;;;;21.70;42.26;96312.31;10350674;28;1946;-54
2022/05/09 04:05:45;;;;;;;;;;;;;;;21.73;41.99;96311.81;10354824;28;1989;-53
2022/05/09 04:10:46;;;;;;;;;;;;;;;21.74;42.19;96315.25;10350826;28;2012;-52
2022/05/09 04:21:10;;;;;;;;;;;;;;;21.71;41.99;96319.19;10370649;28;1888;-54
2022/05/09 04:26:12;;;;;;;;;;;;;;;21.73;42.05;96326.84;10367054;28;2036;-50
2022/05/09 04:31:13;;;;;;;;;;;;;;;21.74;42.05;96323.16;10371231;28;1970;-52
2022/05/09 04:36:13;;;;;;;;;;;;;;;21.72;42.25;96327.91;10360531;28;2063;-52
2022/05/09 04:41:16;;;;;;;;;;;;;;;21.72;42.33;96325.28;10366619;28;1974;-54
2022/05/09 04:46:16;;;;;;;;;;;;;;;21.71;42.36;96324.47;10344708;28;4211;-53
2022/05/09 04:51:16;;;;;;;;;;;;;;;21.74;42.38;96328.44;10340898;28;1900;-52
2022/05/09 04:56:17;;;;;;;;;;;;;;;21.72;42.35;96335.84;10336233;28;1907;-53
2022/05/09 05:01:17;;;;;;;;;;;;;;;21.70;42.62;96330.78;10350528;28;1946;-52
2022/05/09 05:06:18;;;;;;;;;;;;;;;21.71;42.61;96332.41;10339719;28;1902;-52
2022/05/09 05:11:18;;;;;;;;;;;;;;;21.71;42.13;96334.22;10345274;28;2108;-54
2022/05/09 05:16:18;;;;;;;;;;;;;;;21.70;42.49;96336.06;10343535;28;1892;-53
2022/05/09 05:21:19;;;;;;;;;;;;;;;21.71;42.27;96340.31;10358798;28;1992;-49
2022/05/09 05:26:19;;;;;;;;;;;;;;;21.70;42.21;96341.34;10335254;28;1999;-56
2022/05/09 05:31:21;;;;;;;;;;;;;;;21.73;42.33;96347.94;10358036;28;2014;-52
2022/05/09 05:36:22;;;;;;;;;;;;;;;21.71;42.32;96344.78;10361316;28;1915;-54
2022/05/09 05:41:26;;;;;;;;;;;;;;;21.72;42.32;96351.66;10355822;28;2021;-54
2022/05/09 05:46:26;;;;;;;;;;;;;;;21.74;42.22;96362.75;10332933;28;4140;-51
2022/05/09 05:51:26;;;;;;;;;;;;;;;21.75;42.09;96361.66;10342360;28;2029;-53
2022/05/09 05:56:27;;;;;;;;;;;;;;;21.73;42.20;96359.31;10332391;28;2052;-51
2022/05/09 06:01:27;;;;;;;;;;;;;;;21.73;42.27;96364.59;10333061;28;1802;-55
2022/05/09 06:06:27;;;;;;;;;;;;;;;21.72;42.21;96372.78;10334809;28;1907;-53
2022/05/09 06:11:28;;;;;;;;;;;;;;;21.71;42.57;96371.19;10337551;28;1872;-51
2022/05/09 06:16:29;;;;;;;;;;;;;;;21.74;42.58;96371.44;10345824;28;1994;-51
2022/05/09 06:21:33;;;;;;;;;;;;;;;21.70;42.26;96377.53;10333917;28;2063;-51
2022/05/09 06:26:36;;;;;;;;;;;;;;;21.71;42.48;96376.44;10330197;28;1914;-56
2022/05/09 06:31:40;;;;;;;;;;;;;;;21.68;42.90;96371.69;10338982;28;1863;-54
2022/05/09 06:36:41;;;;;;;;;;;;;;;21.56;43.30;96381.72;10359908;28;1769;-55
2022/05/09 06:41:41;;;;;;;;;;;;;;;21.15;44.15;96386.19;10358888;28;1808;-57
2022/05/09 06:46:42;;;;;;;;;;;;;;;21.02;44.52;96389.31;10350736;28;4241;-56
2022/05/09 06:51:43;;;;;;;;;;;;;;;21.18;44.22;96387.53;10359845;28;1905;-58
2022/05/09 06:56:43;;;;;;;;;;;;;;;21.28;44.43;96385.69;10348181;28;1757;-57
2022/05/09 07:01:43;;;;;;;;;;;;;;;21.34;43.50;96391.75;10349580;28;1874;-57
2022/05/09 07:06:44;;;;;;;;;;;;;;;21.37;43.33;96391.25;10341751;28;2084;-57
2022/05/09 07:11:45;;;;;;;;;;;;;;;21.42;43.38;96402.56;10345836;28;2266;-55
2022/05/09 07:16:45;;;;;;;;;;;;;;;21.47;43.68;96407.06;10353337;28;1853;-55
2022/05/09 07:21:45;;;;;;;;;;;;;;;21.50;43.00;96398.63;10350748;28;1895;-55
2022/05/09 07:26:46;;;;;;;;;;;;;;;21.53;42.93;96398.09;10353025;28;1902;-58
2022/05/09 07:31:49;;;;;;;;;;;;;;;21.55;42.48;96401.25;10354448;28;1900;-55
2022/05/09 07:36:49;;;;;;;;;;;;;;;21.56;42.84;96403.63;10360446;28;1736;-56
2022/05/09 07:41:50;;;;;;;;;;;;;;;21.58;43.12;96400.72;10374950;28;1690;-56
2022/05/09 07:46:54;;;;;;;;;;;;;;;21.58;43.07;96398.09;10358124;28;4150;-52
2022/05/09 07:51:54;;;;;;;;;;;;;;;21.57;43.33;96393.88;10342785;28;1848;-58
2022/05/09 07:56:54;;;;;;;;;;;;;;;21.56;42.91;96401.00;10347538;28;1802;-54
2022/05/09 08:01:55;;;;;;;;;;;;;;;21.56;43.45;96400.19;10344278;28;1812;-55
2022/05/09 08:06:56;;;;;;;;;;;;;;;21.55;43.40;96396.78;10357932;28;1907;-57
2022/05/09 08:11:58;;;;;;;;;;;;;;;21.57;43.33;96407.06;10357279;28;1804;-55
2022/05/09 08:17:02;;;;;;;;;;;;;;;21.57;43.40;96404.44;10355036;28;1822;-55
2022/05/09 08:22:04;;;;;;;;;;;;;;;21.55;43.14;96402.06;10356095;28;1805;-55
2022/05/09 08:27:05;;;;;;;;;;;;;;;21.57;43.29;96409.72;10328028;28;4073;-55
2022/05/09 08:32:06;;;;;;;;;;;;;;;21.56;43.13;96405.47;10336554;28;2374;-56
2022/05/09 08:37:06;;;;;;;;;;;;;;;21.55;43.36;96398.63;10332523;28;1829;-56
2022/05/09 08:42:07;;;;;;;;;;;;;;;21.54;43.04;96399.66;10333602;28;2119;-58
2022/05/09 08:47:22;;;;;;;;;;;;;;;21.53;43.51;96406.00;10310702;28;4301;-55
2022/05/09 08:52:26;;;;;;;;;;;;;;;21.53;43.14;96400.75;10334903;28;1848;-58
2022/05/09 08:57:28;;;;;;;;;;;;;;;21.52;43.20;96407.84;10334655;28;1840;-58
2022/05/09 09:02:46;;;;;;;;;;;;;;;21.52;43.17;96393.88;10331129;28;1880;-56
2022/05/09 09:07:58;;;;;;;;;;;;;;;21.53;43.46;96411.28;10337025;28;1906;-58
2022/05/09 09:13:04;;;;;;;;;;;;;;;21.50;43.30;96404.69;10322843;28;1799;-57
2022/05/09 09:18:11;;;;;;;;;;;;;;;21.51;43.48;96414.19;10334618;28;2152;-58
2022/05/09 09:23:15;;;;;;;;;;;;;;;21.51;43.55;96408.13;10349842;28;1916;-55
2022/05/09 09:28:17;;;;;;;;;;;;;;;21.50;43.33;96406.53;10353545;28;1918;-58
2022/05/09 09:33:18;;;;;;;;;;;;;;;21.49;43.42;96404.97;10325002;28;1988;-57
2022/05/09 09:38:40;;;;;;;;;;;;;;;21.47;43.65;96392.03;10337067;28;1938;-55
2022/05/09 09:43:41;;;;;;;;;;;;;;;21.46;43.77;96401.00;10340805;28;1995;-55
2022/05/09 09:48:43;;;;;;;;;;;;;;;21.53;43.93;96400.75;10330265;28;4168;-53
2022/05/09 09:53:50;;;;;;;;;;;;;;;21.49;43.90;96399.69;10329839;28;1894;-53
2022/05/09 09:59:11;;;;;;;;;;;;;;;21.49;44.28;96400.47;10353860;28;1765;-55
2022/05/09 10:04:15;;;;;;;;;;;;;;;21.48;43.93;96404.16;10336866;28;2094;-55
2022/05/09 10:09:15;;;;;;;;;;;;;;;21.48;44.05;96401.53;10320900;28;1972;-57
2022/05/09 10:14:30;;;;;;;;;;;;;;;21.47;44.43;96388.59;10313110;28;2068;-53
2022/05/09 10:19:30;;;;;;;;;;;;;;;21.47;44.22;96392.03;10332429;28;2120;-56
2022/05/09 10:24:49;;;;;;;;;;;;;;;21.48;44.45;96387.53;10350595;28;1905;-53
2022/05/09 10:29:51;;;;;;;;;;;;;;;21.46;44.34;96381.72;10341338;28;1906;-55
2022/05/09 10:34:57;;;;;;;;;;;;;;;21.52;44.53;96383.31;10333122;28;1938;-58
2022/05/09 10:40:09;;;;;;;;;;;;;;;21.52;44.64;96368.28;10350810;28;1693;-58
2022/05/09 10:45:16;;;;;;;;;;;;;;;21.49;44.95;96378.59;10326090;28;3889;-53
2022/05/09 10:50:18;;;;;;;;;;;;;;;21.50;44.89;96385.41;10346256;28;4196;-53
2022/05/09 10:55:20;;;;;;;;;;;;;;;21.55;44.86;96366.97;10326493;28;1818;-55
2022/05/09 11:00:22;;;;;;;;;;;;;;;21.50;44.69;96364.31;10336597;28;1832;-55
2022/05/09 11:05:23;;;;;;;;;;;;;;;21.51;44.65;96356.16;10353959;28;1765;-55
2022/05/09 11:10:26;;;;;;;;;;;;;;;21.51;44.45;96344.81;10336995;28;1910;-57
2022/05/09 11:15:32;;;;;;;;;;;;;;;21.51;44.66;96342.19;10331690;28;1840;-53
2022/05/09 11:20:32;;;;;;;;;;;;;;;21.49;44.54;96336.38;10359957;28;1817;-52
2022/05/09 11:25:38;;;;;;;;;;;;;;;21.52;44.73;96335.84;10335978;28;1871;-57
2022/05/09 11:30:38;;;;;;;;;;;;;;;21.49;44.49;96331.91;10349048;28;2529;-56
2022/05/09 11:35:39;;;;;;;;;;;;;;;21.50;44.74;96332.66;10332764;28;1855;-55
2022/05/09 11:40:43;;;;;;;;;;;;;;;21.50;44.67;96330.03;10355949;28;1784;-54
2022/05/09 11:45:43;;;;;;;;;;;;;;;21.50;44.70;96322.91;10319404;28;4166;-56
2022/05/09 11:50:51;;;;;;;;;;;;;;;21.50;44.71;96316.84;10332849;28;4111;-51
2022/05/09 11:55:51;;;;;;;;;;;;;;;21.51;44.51;96310.53;10335425;28;1832;-56
2022/05/09 12:00:52;;;;;;;;;;;;;;;21.52;44.77;96306.81;10356332;28;1776;-56
2022/05/09 12:05:59;;;;;;;;;;;;;;;21.51;44.73;96306.03;10353424;28;1823;-56
2022/05/09 12:11:22;;;;;;;;;;;;;;;21.51;44.44;96300.78;10339715;28;1990;-53
2022/05/09 12:16:35;;;;;;;;;;;;;;;21.51;44.79;96299.97;10346983;28;1776;-57
2022/05/09 12:21:38;;;;;;;;;;;;;;;21.50;44.52;96291.25;10368079;28;1864;-56
2022/05/09 12:26:40;;;;;;;;;;;;;;;21.54;44.67;96291.50;10331340;28;1965;-57
2022/05/09 12:31:42;;;;;;;;;;;;;;;21.53;44.74;96287.31;10354684;28;2317;-56
2022/05/09 12:36:44;;;;;;;;;;;;;;;21.53;44.65;96287.31;10353326;28;1752;-54
2022/05/09 12:41:52;;;;;;;;;;;;;;;21.55;44.79;96287.84;10355559;28;1777;-56
2022/05/09 12:46:53;;;;;;;;;;;;;;;21.53;44.59;96297.84;10310809;28;4158;-54
2022/05/09 12:51:56;;;;;;;;;;;;;;;21.54;44.61;96294.16;10347108;28;1800;-56
2022/05/09 12:56:59;;;;;;;;;;;;;;;21.55;44.74;96290.47;10351414;28;1947;-57
2022/05/09 13:02:01;;;;;;;;;;;;;;;21.54;44.82;96291.50;10355411;28;1839;-56
2022/05/09 13:07:02;;;;;;;;;;;;;;;21.56;44.77;96286.75;10355547;28;1970;-54
2022/05/09 13:12:19;;;;;;;;;;;;;;;21.55;44.74;96277.28;10349421;28;1832;-56
2022/05/09 13:17:26;;;;;;;;;;;;;;;21.55;44.80;96266.72;10338010;28;1683;-56
2022/05/09 13:22:31;;;;;;;;;;;;;;;21.55;44.44;96261.44;10343890;28;2073;-55
2022/05/09 13:27:31;;;;;;;;;;;;;;;21.54;44.78;96252.75;10345925;28;1906;-59
2022/05/09 13:32:34;;;;;;;;;;;;;;;21.55;44.72;96253.53;10346395;28;2383;-55
2022/05/09 13:37:36;;;;;;;;;;;;;;;21.53;44.85;96250.38;10347470;28;1832;-58
2022/05/09 13:42:43;;;;;;;;;;;;;;;21.55;44.75;96243.00;10355903;28;1812;-57
2022/05/09 13:47:44;;;;;;;;;;;;;;;21.55;44.69;96237.72;10313118;28;4178;-55
2022/05/09 13:52:46;;;;;;;;;;;;;;;21.55;44.70;96229.81;10315801;28;1986;-54
2022/05/09 13:57:48;;;;;;;;;;;;;;;21.55;44.74;96224.53;10339057;28;1902;-56
2022/05/09 14:02:50;;;;;;;;;;;;;;;21.53;44.80;96219.53;10324655;28;1971;-58
2022/05/09 14:07:50;;;;;;;;;;;;;;;21.54;44.76;96222.94;10350552;28;1883;-58
2022/05/09 14:12:51;;;;;;;;;;;;;;;21.61;43.09;96212.91;10348086;28;1935;-53
2022/05/09 14:17:56;;;;;;;;;;;;;;;21.59;42.47;96218.44;10345365;28;1752;-54
2022/05/09 14:22:56;;;;;;;;;;;;;;;21.56;41.57;96210.25;10327569;28;1863;-56
2022/05/09 14:33:35;;;;;;;;;;;;;;;21.40;41.51;96211.38;10349030;28;2380;-57
2022/05/09 14:38:39;;;;;;;;;;;;;;;21.40;41.59;96206.09;10337996;28;1897;-57
2022/05/09 14:43:40;;;;;;;;;;;;;;;21.41;41.89;96197.91;10331368;28;1900;-55
2022/05/09 14:48:42;;;;;;;;;;;;;;;21.39;41.93;96200.00;10345196;28;4183;-57
2022/05/09 14:53:46;;;;;;;;;;;;;;;21.41;41.89;96205.03;10356457;28;1898;-57
2022/05/09 14:58:47;;;;;;;;;;;;;;;21.40;41.94;96191.06;10329364;28;1839;-58
2022/05/09 15:03:49;;;;;;;;;;;;;;;21.39;42.18;96189.47;10336308;28;1869;-59
2022/05/09 15:08:50;;;;;;;;;;;;;;;21.41;42.22;96189.22;10357920;28;1913;-58
2022/05/09 15:13:51;;;;;;;;;;;;;;;21.39;42.39;96184.19;10357162;28;1861;-55
2022/05/09 15:18:52;;;;;;;;;;;;;;;21.38;42.41;96177.34;10342712;28;1770;-54
2022/05/09 15:23:52;;;;;;;;;;;;;;;21.40;42.53;96185.00;10353282;28;1790;-57
2022/05/09 15:28:59;;;;;;;;;;;;;;;21.41;42.44;96181.31;10330822;28;1914;-55
2022/05/09 15:33:59;;;;;;;;;;;;;;;21.40;42.61;96180.50;10327942;28;2413;-58
2022/05/09 15:39:00;;;;;;;;;;;;;;;21.41;42.66;96178.66;10355959;28;1808;-52
2022/05/09 15:44:02;;;;;;;;;;;;;;;21.42;42.89;96188.16;10355570;28;1851;-57
2022/05/09 15:49:04;;;;;;;;;;;;;;;21.41;42.87;96183.94;10333799;28;4031;-57
2022/05/09 15:54:05;;;;;;;;;;;;;;;21.41;42.95;96187.34;10337064;28;1835;-56
2022/05/09 15:59:05;;;;;;;;;;;;;;;21.41;43.20;96183.94;10338159;28;1832;-56
2022/05/09 16:04:06;;;;;;;;;;;;;;;21.42;43.03;96193.41;10324449;28;1836;-59
2022/05/09 16:14:25;;;;;;;;;;;;;;;21.42;42.86;96193.41;10329041;28;1851;-56
2022/05/09 16:19:36;;;;;;;;;;;;;;;21.41;43.06;96191.84;10352376;28;1836;-59
2022/05/09 16:24:41;;;;;;;;;;;;;;;21.39;43.31;96197.38;10320062;28;1780;-59
2022/05/09 16:29:42;;;;;;;;;;;;;;;21.39;43.15;96189.47;10349405;28;1906;-55
2022/05/09 16:34:44;;;;;;;;;;;;;;;21.40;43.29;96191.06;10334174;28;2365;-51
2022/05/09 16:39:46;;;;;;;;;;;;;;;21.39;43.38;96188.69;10334076;28;1985;-58
2022/05/09 16:45:07;;;;;;;;;;;;;;;21.39;43.57;96197.38;10337901;28;1821;-60
2022/05/09 16:50:08;;;;;;;;;;;;;;;21.38;43.61;96187.91;10348169;28;4131;-61
2022/05/09 16:55:09;;;;;;;;;;;;;;;21.41;43.79;96202.41;10323673;28;1792;-58
2022/05/09 17:00:11;;;;;;;;;;;;;;;21.39;43.51;96201.88;10352926;28;1883;-59
2022/05/09 17:05:12;;;;;;;;;;;;;;;21.39;43.52;96200.00;10328874;28;1909;-57
2022/05/09 17:10:12;;;;;;;;;;;;;;;21.40;43.72;96198.19;10352017;28;1907;-59
2022/05/09 17:15:15;;;;;;;;;;;;;;;21.39;43.80;96199.25;10336532;28;1773;-55
2022/05/09 17:20:24;;;;;;;;;;;;;;;21.39;43.66;96199.25;10332457;28;2054;-54
2022/05/09 17:25:32;;;;;;;;;;;;;;;21.38;43.74;96209.00;10331532;28;1944;-58
2022/05/09 17:30:32;;;;;;;;;;;;;;;21.37;43.73;96207.41;10332163;28;1977;-55
2022/05/09 17:40:59;;;;;;;;;;;;;;;21.37;43.83;96211.91;10348707;28;1871;-58
2022/05/09 17:45:59;;;;;;;;;;;;;;;21.37;43.68;96217.94;10330185;28;1805;-60
2022/05/09 17:51:00;;;;;;;;;;;;;;;21.35;43.68;96230.63;10348928;28;4168;-57
2022/05/09 17:56:00;;;;;;;;;;;;;;;21.36;43.84;96220.88;10346343;28;1847;-61
2022/05/09 18:01:01;;;;;;;;;;;;;;;21.34;43.82;96215.06;10348089;28;1821;-57
2022/05/09 18:06:01;;;;;;;;;;;;;;;21.35;43.69;96229.84;10350916;28;1788;-56
2022/05/09 18:11:02;;;;;;;;;;;;;;;21.38;43.60;96224.03;10346838;28;1942;-55
2022/05/09 18:16:03;;;;;;;;;;;;;;;21.36;43.78;96234.84;10332434;28;1835;-61
2022/05/09 18:21:04;;;;;;;;;;;;;;;21.34;43.82;96222.97;10328515;28;2522;-54
2022/05/09 18:26:04;;;;;;;;;;;;;;;21.34;43.78;96241.44;10322111;28;1868;-58
2022/05/09 18:31:05;;;;;;;;;;;;;;;21.35;43.91;96240.41;10356266;28;1918;-52
2022/05/09 18:36:07;;;;;;;;;;;;;;;21.37;44.26;96243.56;10341358;28;1903;-58
2022/05/09 18:41:12;;;;;;;;;;;;;;;21.34;44.10;96234.31;10351735;28;1745;-63
2022/05/09 18:46:17;;;;;;;;;;;;;;;21.34;44.11;96239.59;10342998;28;1888;-63
2022/05/09 18:56:36;;;;;;;;;;;;;;;21.33;44.08;96247.78;10342257;28;1832;-57
2022/05/09 19:01:37;;;;;;;;;;;;;;;21.33;44.46;96258.34;10345550;28;2141;-64
2022/05/09 19:06:38;;;;;;;;;;;;;;;21.34;44.80;96262.53;10360594;28;1898;-61
2022/05/09 19:11:38;;;;;;;;;;;;;;;21.37;45.75;96259.38;10328151;28;1856;-60
2022/05/09 19:16:38;;;;;;;;;;;;;;;21.47;45.80;96269.91;10338671;28;1840;-59
2022/05/09 19:21:38;;;;;;;;;;;;;;;21.44;46.39;96276.50;10326072;28;1821;-56
2022/05/09 19:26:39;;;;;;;;;;;;;;;21.41;46.38;96271.75;10340602;28;2007;-57
2022/05/09 19:31:40;;;;;;;;;;;;;;;21.42;46.44;96277.81;10359528;28;1793;-59
2022/05/09 19:36:41;;;;;;;;;;;;;;;21.42;46.30;96277.81;10346649;28;1844;-56
2022/05/09 19:41:43;;;;;;;;;;;;;;;21.39;46.61;96276.50;10358370;28;1940;-58
2022/05/09 19:46:48;;;;;;;;;;;;;;;21.39;46.52;96276.50;10326330;28;1968;-58
2022/05/09 19:54:00;;;;;;;;;;;;;;;21.40;46.68;96275.44;10317749;28;4119;-56
2022/05/09 19:57:09;;;;;;;;;;;;;;;21.37;46.54;96277.84;10336397;28;1808;-55
2022/05/09 20:02:14;;;;;;;;;;;;;;;21.38;46.32;96276.78;10339762;28;1913;-60
2022/05/09 20:07:14;;;;;;;;;;;;;;;21.37;46.37;96280.47;10323743;28;1918;-55
2022/05/09 20:12:17;;;;;;;;;;;;;;;21.37;46.17;96291.03;10338447;28;1976;-57
2022/05/09 20:17:17;;;;;;;;;;;;;;;21.35;46.04;96293.91;10349374;28;1824;-56
2022/05/09 20:22:18;;;;;;;;;;;;;;;21.36;46.12;96294.72;10338168;28;1900;-55
2022/05/09 20:32:37;;;;;;;;;;;;;;;21.33;46.07;96306.56;10355123;28;1833;-59
2022/05/09 20:37:38;;;;;;;;;;;;;;;21.33;46.10;96301.28;10353041;28;1960;-58
2022/05/09 20:42:38;;;;;;;;;;;;;;;21.34;45.93;96310.00;10351582;28;1896;-58
2022/05/09 20:47:40;;;;;;;;;;;;;;;21.34;46.15;96315.28;10328516;28;1960;-54
2022/05/09 20:52:41;;;;;;;;;;;;;;;21.33;46.03;96322.38;10341686;28;4159;-56
2022/05/09 20:57:46;;;;;;;;;;;;;;;21.32;45.87;96320.03;10355155;28;2232;-54
2022/05/09 21:02:47;;;;;;;;;;;;;;;21.31;45.87;96321.88;10330224;28;2230;-58
2022/05/09 21:07:47;;;;;;;;;;;;;;;21.32;45.81;96325.28;10333576;28;1910;-60
2022/05/09 21:12:48;;;;;;;;;;;;;;;21.31;45.71;96321.09;10325511;28;1859;-57
2022/05/09 21:17:48;;;;;;;;;;;;;;;21.31;45.71;96318.47;10336012;28;1842;-56
2022/05/09 21:22:48;;;;;;;;;;;;;;;21.30;45.58;96314.22;10332360;28;1833;-58
2022/05/09 21:27:50;;;;;;;;;;;;;;;21.31;45.66;96313.19;10349462;28;2031;-58
2022/05/09 21:32:51;;;;;;;;;;;;;;;21.30;45.50;96316.84;10334283;28;2253;-58
2022/05/09 21:37:52;;;;;;;;;;;;;;;21.29;45.60;96315.28;10341579;28;1821;-55
2022/05/09 21:42:52;;;;;;;;;;;;;;;21.30;45.54;96322.13;10335371;28;1877;-56
2022/05/09 21:47:52;;;;;;;;;;;;;;;21.29;45.17;96317.94;10342918;28;1960;-58
2022/05/09 21:52:54;;;;;;;;;;;;;;;21.28;45.61;96319.78;10348275;28;4198;-56
2022/05/09 21:57:54;;;;;;;;;;;;;;;21.28;45.48;96313.69;10348949;28;2118;-59
2022/05/09 22:02:55;;;;;;;;;;;;;;;21.26;45.14;96307.91;10330010;28;1925;-56
2022/05/09 22:07:56;;;;;;;;;;;;;;;21.27;45.20;96312.91;10337996;28;1902;-58
2022/05/09 22:12:56;;;;;;;;;;;;;;;21.27;45.26;96299.72;10351554;28;1812;-59
2022/05/09 22:17:58;;;;;;;;;;;;;;;21.27;45.27;96298.94;10335650;28;1956;-55
2022/05/09 22:22:59;;;;;;;;;;;;;;;21.25;45.19;96306.31;10338211;28;2145;-58
2022/05/09 22:27:59;;;;;;;;;;;;;;;21.25;45.30;96301.03;10354574;28;1985;-55
2022/05/09 22:32:59;;;;;;;;;;;;;;;21.25;45.17;96295.75;10344273;28;2145;-56
2022/05/09 22:38:00;;;;;;;;;;;;;;;21.24;45.09;96291.56;10352017;28;1840;-57
2022/05/09 22:43:02;;;;;;;;;;;;;;;21.24;45.07;96291.56;10352476;28;1824;-56
2022/05/09 22:48:04;;;;;;;;;;;;;;;21.24;44.98;96291.56;10349037;28;1902;-57
2022/05/09 22:53:07;;;;;;;;;;;;;;;21.23;44.77;96290.75;10303407;28;4094;-58
2022/05/09 22:58:08;;;;;;;;;;;;;;;21.22;44.86;96281.28;10333556;28;1961;-56
2022/05/09 23:03:10;;;;;;;;;;;;;;;21.24;44.96;96283.66;10333129;28;1876;-55
2022/05/09 23:08:10;;;;;;;;;;;;;;;21.22;44.94;96281.28;10329802;28;1971;-57
2022/05/09 23:13:19;;;;;;;;;;;;;;;21.22;44.72;96275.22;10359730;28;1857;-57
2022/05/09 23:18:20;;;;;;;;;;;;;;;21.22;44.63;96269.94;10360996;28;1848;-60
2022/05/09 23:23:20;;;;;;;;;;;;;;;21.22;44.93;96275.22;10353121;28;1835;-55
2022/05/09 23:28:21;;;;;;;;;;;;;;;21.22;44.55;96262.03;10351289;28;1981;-59
2022/05/09 23:33:22;;;;;;;;;;;;;;;21.22;44.73;96262.03;10350385;28;1832;-60
2022/05/09 23:38:22;;;;;;;;;;;;;;;21.21;44.65;96252.53;10353294;28;1867;-56
2022/05/09 23:43:25;;;;;;;;;;;;;;;21.21;44.68;96255.16;10350255;28;1832;-56
2022/05/09 23:48:25;;;;;;;;;;;;;;;21.21;44.50;96252.53;10333205;28;1981;-56
2022/05/09 23:53:25;;;;;;;;;;;;;;;21.20;44.42;96245.69;10325576;28;4147;-58
2022/05/09 23:58:26;;;;;;;;;;;;;;;21.20;44.59;96235.13;10354820;28;1769;-57
